sensor_id;sensor_type;location;lat;lon;timestamp;temperature;humidity
18266;DHT22;9259;48.194;16.322;2023-05-19T00:02:08;10.60;99.90
18266;DHT22;9259;48.194;16.322;2023-05-19T00:04:38;10.60;99.90
18266;DHT22;9259;48.194;16.322;2023-05-19T00:07:09;10.60;99.90
18266;DHT22;9259;48.194;16.322;2023-05-19T00:09:37;10.50;99.90
18266;DHT22;9259;48.194;16.322;2023-05-19T00:12:06;10.40;99.90
18266;DHT22;9259;48.194;16.322;2023-05-19T00:14:36;10.40;99.90
18266;DHT22;9259;48.194;16.322;2023-05-19T00:17:04;10.40;99.90
18266;DHT22;9259;48.194;16.322;2023-05-19T00:19:32;10.50;99.90
18266;DHT22;9259;48.194;16.322;2023-05-19T00:22:01;10.40;99.90
18266;DHT22;9259;48.194;16.322;2023-05-19T00:24:29;10.40;99.90
18266;DHT22;9259;48.194;16.322;2023-05-19T00:26:56;10.40;99.90
18266;DHT22;9259;48.194;16.322;2023-05-19T00:29:24;10.40;99.90
18266;DHT22;9259;48.194;16.322;2023-05-19T00:31:51;10.40;99.90
18266;DHT22;9259;48.194;16.322;2023-05-19T00:34:18;10.50;99.90
18266;DHT22;9259;48.194;16.322;2023-05-19T00:36:46;10.50;99.90
18266;DHT22;9259;48.194;16.322;2023-05-19T00:39:15;10.50;99.90
18266;DHT22;9259;48.194;16.322;2023-05-19T00:41:42;10.40;99.90
18266;DHT22;9259;48.194;16.322;2023-05-19T00:44:09;10.40;99.90
18266;DHT22;9259;48.194;16.322;2023-05-19T00:46:37;10.30;99.90
18266;DHT22;9259;48.194;16.322;2023-05-19T00:49:04;10.30;99.90
18266;DHT22;9259;48.194;16.322;2023-05-19T00:51:32;10.40;99.90
18266;DHT22;9259;48.194;16.322;2023-05-19T00:53:59;10.40;99.90
18266;DHT22;9259;48.194;16.322;2023-05-19T00:56:28;10.40;99.90
18266;DHT22;9259;48.194;16.322;2023-05-19T00:58:56;10.40;99.90
18266;DHT22;9259;48.194;16.322;2023-05-19T01:01:24;10.30;99.90
18266;DHT22;9259;48.194;16.322;2023-05-19T01:03:53;10.20;99.90
18266;DHT22;9259;48.194;16.322;2023-05-19T01:06:21;10.30;99.90
18266;DHT22;9259;48.194;16.322;2023-05-19T01:08:50;10.20;99.90
18266;DHT22;9259;48.194;16.322;2023-05-19T01:11:18;10.20;99.90
18266;DHT22;9259;48.194;16.322;2023-05-19T01:13:48;10.10;99.90
18266;DHT22;9259;48.194;16.322;2023-05-19T01:16:21;10.10;99.90
18266;DHT22;9259;48.194;16.322;2023-05-19T01:18:57;10.00;99.90
18266;DHT22;9259;48.194;16.322;2023-05-19T01:21:49;10.10;99.90
18266;DHT22;9259;48.194;16.322;2023-05-19T01:24:33;10.00;99.90
18266;DHT22;9259;48.194;16.322;2023-05-19T01:27:21;10.00;99.90
18266;DHT22;9259;48.194;16.322;2023-05-19T01:32:53;9.90;99.90
18266;DHT22;9259;48.194;16.322;2023-05-19T01:35:22;9.90;99.90
18266;DHT22;9259;48.194;16.322;2023-05-19T01:37:51;9.90;99.90
18266;DHT22;9259;48.194;16.322;2023-05-19T01:40:18;9.80;99.90
18266;DHT22;9259;48.194;16.322;2023-05-19T01:42:48;9.80;99.90
18266;DHT22;9259;48.194;16.322;2023-05-19T01:45:17;9.80;99.90
18266;DHT22;9259;48.194;16.322;2023-05-19T01:47:55;9.80;99.90
18266;DHT22;9259;48.194;16.322;2023-05-19T01:50:23;9.90;99.90
18266;DHT22;9259;48.194;16.322;2023-05-19T01:52:50;10.00;99.90
18266;DHT22;9259;48.194;16.322;2023-05-19T01:55:18;9.90;99.90
18266;DHT22;9259;48.194;16.322;2023-05-19T01:57:59;9.80;99.90
18266;DHT22;9259;48.194;16.322;2023-05-19T02:00:36;9.80;99.90
18266;DHT22;9259;48.194;16.322;2023-05-19T02:06:02;9.80;99.90
18266;DHT22;9259;48.194;16.322;2023-05-19T02:08:38;9.70;99.90
18266;DHT22;9259;48.194;16.322;2023-05-19T02:11:12;9.70;99.90
18266;DHT22;9259;48.194;16.322;2023-05-19T02:13:43;9.70;99.90
18266;DHT22;9259;48.194;16.322;2023-05-19T02:16:12;9.70;99.90
18266;DHT22;9259;48.194;16.322;2023-05-19T02:18:41;9.70;99.90
18266;DHT22;9259;48.194;16.322;2023-05-19T02:21:10;9.60;99.90
18266;DHT22;9259;48.194;16.322;2023-05-19T02:23:39;9.60;99.90
18266;DHT22;9259;48.194;16.322;2023-05-19T02:26:07;9.60;99.90
18266;DHT22;9259;48.194;16.322;2023-05-19T02:28:34;9.60;99.90
18266;DHT22;9259;48.194;16.322;2023-05-19T02:31:02;9.70;99.90
18266;DHT22;9259;48.194;16.322;2023-05-19T02:33:33;9.70;99.90
18266;DHT22;9259;48.194;16.322;2023-05-19T02:36:03;9.70;99.90
18266;DHT22;9259;48.194;16.322;2023-05-19T02:38:30;9.70;99.90
18266;DHT22;9259;48.194;16.322;2023-05-19T02:40:58;9.70;99.90
18266;DHT22;9259;48.194;16.322;2023-05-19T02:43:25;9.60;99.90
18266;DHT22;9259;48.194;16.322;2023-05-19T02:45:55;9.70;99.90
18266;DHT22;9259;48.194;16.322;2023-05-19T02:48:22;9.70;99.90
18266;DHT22;9259;48.194;16.322;2023-05-19T02:50:50;9.60;99.90
18266;DHT22;9259;48.194;16.322;2023-05-19T02:53:19;9.60;99.90
18266;DHT22;9259;48.194;16.322;2023-05-19T02:55:46;9.60;99.90
18266;DHT22;9259;48.194;16.322;2023-05-19T02:58:14;9.60;99.90
18266;DHT22;9259;48.194;16.322;2023-05-19T03:00:41;9.60;99.90
18266;DHT22;9259;48.194;16.322;2023-05-19T03:03:10;9.60;99.90
18266;DHT22;9259;48.194;16.322;2023-05-19T03:05:38;9.60;99.90
18266;DHT22;9259;48.194;16.322;2023-05-19T03:08:06;9.60;99.90
18266;DHT22;9259;48.194;16.322;2023-05-19T03:10:35;9.60;99.90
18266;DHT22;9259;48.194;16.322;2023-05-19T03:13:03;9.60;99.90
18266;DHT22;9259;48.194;16.322;2023-05-19T03:15:30;9.60;99.90
18266;DHT22;9259;48.194;16.322;2023-05-19T03:17:58;9.60;99.90
18266;DHT22;9259;48.194;16.322;2023-05-19T03:20:25;9.60;99.90
18266;DHT22;9259;48.194;16.322;2023-05-19T03:22:55;9.60;99.90
18266;DHT22;9259;48.194;16.322;2023-05-19T03:25:23;9.50;99.90
18266;DHT22;9259;48.194;16.322;2023-05-19T03:27:52;9.50;99.90
18266;DHT22;9259;48.194;16.322;2023-05-19T03:30:19;9.60;99.90
18266;DHT22;9259;48.194;16.322;2023-05-19T03:32:47;9.60;99.90
18266;DHT22;9259;48.194;16.322;2023-05-19T03:35:17;9.50;99.90
18266;DHT22;9259;48.194;16.322;2023-05-19T03:37:44;9.50;99.90
18266;DHT22;9259;48.194;16.322;2023-05-19T03:40:12;9.40;99.90
18266;DHT22;9259;48.194;16.322;2023-05-19T03:42:40;9.50;99.90
18266;DHT22;9259;48.194;16.322;2023-05-19T03:45:10;9.50;99.90
18266;DHT22;9259;48.194;16.322;2023-05-19T03:47:37;9.50;99.90
18266;DHT22;9259;48.194;16.322;2023-05-19T03:50:05;9.50;99.90
18266;DHT22;9259;48.194;16.322;2023-05-19T03:52:34;9.60;99.90
18266;DHT22;9259;48.194;16.322;2023-05-19T03:55:04;9.60;99.90
18266;DHT22;9259;48.194;16.322;2023-05-19T03:57:32;9.70;99.90
18266;DHT22;9259;48.194;16.322;2023-05-19T03:59:59;9.70;99.90
18266;DHT22;9259;48.194;16.322;2023-05-19T04:02:28;9.60;99.90
18266;DHT22;9259;48.194;16.322;2023-05-19T04:04:56;9.60;99.90
18266;DHT22;9259;48.194;16.322;2023-05-19T04:07:24;9.60;99.90
18266;DHT22;9259;48.194;16.322;2023-05-19T04:09:51;9.50;99.90
18266;DHT22;9259;48.194;16.322;2023-05-19T04:12:18;9.50;99.90
18266;DHT22;9259;48.194;16.322;2023-05-19T04:14:46;9.50;99.90
18266;DHT22;9259;48.194;16.322;2023-05-19T04:17:13;9.50;99.90
18266;DHT22;9259;48.194;16.322;2023-05-19T04:19:42;9.50;99.90
18266;DHT22;9259;48.194;16.322;2023-05-19T04:22:10;9.50;99.90
18266;DHT22;9259;48.194;16.322;2023-05-19T04:24:37;9.50;99.90
18266;DHT22;9259;48.194;16.322;2023-05-19T04:27:05;9.50;99.90
18266;DHT22;9259;48.194;16.322;2023-05-19T04:29:37;9.60;99.90
18266;DHT22;9259;48.194;16.322;2023-05-19T04:32:06;9.60;99.90
18266;DHT22;9259;48.194;16.322;2023-05-19T04:34:34;9.60;99.90
18266;DHT22;9259;48.194;16.322;2023-05-19T04:37:06;9.60;99.90
18266;DHT22;9259;48.194;16.322;2023-05-19T04:39:35;9.60;99.90
18266;DHT22;9259;48.194;16.322;2023-05-19T04:42:04;9.60;99.90
18266;DHT22;9259;48.194;16.322;2023-05-19T04:44:31;9.70;99.90
18266;DHT22;9259;48.194;16.322;2023-05-19T04:46:59;9.90;99.90
18266;DHT22;9259;48.194;16.322;2023-05-19T04:49:26;9.90;99.90
18266;DHT22;9259;48.194;16.322;2023-05-19T04:51:54;10.00;99.90
18266;DHT22;9259;48.194;16.322;2023-05-19T04:54:23;10.20;99.90
18266;DHT22;9259;48.194;16.322;2023-05-19T04:56:51;10.10;99.90
18266;DHT22;9259;48.194;16.322;2023-05-19T04:59:18;10.30;99.90
18266;DHT22;9259;48.194;16.322;2023-05-19T05:01:46;10.40;99.90
18266;DHT22;9259;48.194;16.322;2023-05-19T05:04:13;10.40;99.90
18266;DHT22;9259;48.194;16.322;2023-05-19T05:06:41;10.60;99.90
18266;DHT22;9259;48.194;16.322;2023-05-19T05:09:12;10.90;99.90
18266;DHT22;9259;48.194;16.322;2023-05-19T05:11:42;11.10;99.90
18266;DHT22;9259;48.194;16.322;2023-05-19T05:14:10;11.30;99.90
18266;DHT22;9259;48.194;16.322;2023-05-19T05:16:38;11.40;99.90
18266;DHT22;9259;48.194;16.322;2023-05-19T05:19:06;11.50;99.90
18266;DHT22;9259;48.194;16.322;2023-05-19T05:21:34;11.50;99.90
18266;DHT22;9259;48.194;16.322;2023-05-19T05:24:02;11.60;99.90
18266;DHT22;9259;48.194;16.322;2023-05-19T05:26:32;11.50;99.90
18266;DHT22;9259;48.194;16.322;2023-05-19T05:29:02;11.70;99.90
18266;DHT22;9259;48.194;16.322;2023-05-19T05:31:29;11.70;99.90
18266;DHT22;9259;48.194;16.322;2023-05-19T05:33:58;11.90;99.90
18266;DHT22;9259;48.194;16.322;2023-05-19T05:36:25;12.00;99.90
18266;DHT22;9259;48.194;16.322;2023-05-19T05:38:53;11.90;99.90
18266;DHT22;9259;48.194;16.322;2023-05-19T05:41:20;12.10;99.90
18266;DHT22;9259;48.194;16.322;2023-05-19T05:43:48;12.20;99.90
18266;DHT22;9259;48.194;16.322;2023-05-19T05:46:17;12.00;99.90
18266;DHT22;9259;48.194;16.322;2023-05-19T05:48:45;11.70;99.90
18266;DHT22;9259;48.194;16.322;2023-05-19T05:51:13;11.90;99.90
18266;DHT22;9259;48.194;16.322;2023-05-19T05:53:41;12.10;99.90
18266;DHT22;9259;48.194;16.322;2023-05-19T05:56:11;12.00;99.90
18266;DHT22;9259;48.194;16.322;2023-05-19T05:58:39;11.90;99.90
18266;DHT22;9259;48.194;16.322;2023-05-19T06:01:06;11.70;99.90
18266;DHT22;9259;48.194;16.322;2023-05-19T06:03:40;11.90;99.90
18266;DHT22;9259;48.194;16.322;2023-05-19T06:06:09;12.00;99.90
18266;DHT22;9259;48.194;16.322;2023-05-19T06:08:36;12.10;99.90
18266;DHT22;9259;48.194;16.322;2023-05-19T06:11:04;12.20;99.90
18266;DHT22;9259;48.194;16.322;2023-05-19T06:13:34;12.40;99.90
18266;DHT22;9259;48.194;16.322;2023-05-19T06:16:02;12.60;99.90
18266;DHT22;9259;48.194;16.322;2023-05-19T06:18:29;12.70;99.90
18266;DHT22;9259;48.194;16.322;2023-05-19T06:20:58;13.00;99.90
18266;DHT22;9259;48.194;16.322;2023-05-19T06:23:26;12.80;99.90
18266;DHT22;9259;48.194;16.322;2023-05-19T06:25:54;13.00;99.90
18266;DHT22;9259;48.194;16.322;2023-05-19T06:28:22;13.20;99.90
18266;DHT22;9259;48.194;16.322;2023-05-19T06:30:50;13.30;99.90
18266;DHT22;9259;48.194;16.322;2023-05-19T06:33:17;13.50;99.90
18266;DHT22;9259;48.194;16.322;2023-05-19T06:35:45;13.80;99.90
18266;DHT22;9259;48.194;16.322;2023-05-19T06:38:13;14.10;99.90
18266;DHT22;9259;48.194;16.322;2023-05-19T06:40:41;13.50;99.90
18266;DHT22;9259;48.194;16.322;2023-05-19T06:43:08;13.60;99.90
18266;DHT22;9259;48.194;16.322;2023-05-19T06:45:36;13.90;99.90
18266;DHT22;9259;48.194;16.322;2023-05-19T06:48:03;14.10;99.90
18266;DHT22;9259;48.194;16.322;2023-05-19T06:50:31;13.80;99.90
18266;DHT22;9259;48.194;16.322;2023-05-19T06:52:58;13.80;99.90
18266;DHT22;9259;48.194;16.322;2023-05-19T06:55:28;13.90;99.90
18266;DHT22;9259;48.194;16.322;2023-05-19T06:57:55;13.70;99.90
18266;DHT22;9259;48.194;16.322;2023-05-19T07:00:23;13.90;99.90
18266;DHT22;9259;48.194;16.322;2023-05-19T07:02:50;13.80;99.90
18266;DHT22;9259;48.194;16.322;2023-05-19T07:05:18;13.90;99.90
18266;DHT22;9259;48.194;16.322;2023-05-19T07:07:46;13.90;99.90
18266;DHT22;9259;48.194;16.322;2023-05-19T07:10:13;13.60;99.90
18266;DHT22;9259;48.194;16.322;2023-05-19T07:12:42;13.80;99.90
18266;DHT22;9259;48.194;16.322;2023-05-19T07:15:10;13.90;99.90
18266;DHT22;9259;48.194;16.322;2023-05-19T07:17:37;14.00;99.90
18266;DHT22;9259;48.194;16.322;2023-05-19T07:20:06;14.00;99.90
18266;DHT22;9259;48.194;16.322;2023-05-19T07:22:35;13.70;99.90
18266;DHT22;9259;48.194;16.322;2023-05-19T07:25:04;13.80;99.90
18266;DHT22;9259;48.194;16.322;2023-05-19T07:27:31;14.00;99.90
18266;DHT22;9259;48.194;16.322;2023-05-19T07:30:00;14.10;99.90
18266;DHT22;9259;48.194;16.322;2023-05-19T07:32:29;14.10;99.90
18266;DHT22;9259;48.194;16.322;2023-05-19T07:34:56;14.10;99.90
18266;DHT22;9259;48.194;16.322;2023-05-19T07:37:24;14.40;99.90
18266;DHT22;9259;48.194;16.322;2023-05-19T07:39:51;14.70;99.90
18266;DHT22;9259;48.194;16.322;2023-05-19T07:42:19;14.90;99.90
18266;DHT22;9259;48.194;16.322;2023-05-19T07:44:46;15.50;99.90
18266;DHT22;9259;48.194;16.322;2023-05-19T07:47:15;15.50;99.90
18266;DHT22;9259;48.194;16.322;2023-05-19T07:49:43;15.60;99.90
18266;DHT22;9259;48.194;16.322;2023-05-19T07:52:10;15.70;99.90
18266;DHT22;9259;48.194;16.322;2023-05-19T07:54:37;16.20;99.90
18266;DHT22;9259;48.194;16.322;2023-05-19T07:57:05;16.60;99.90
18266;DHT22;9259;48.194;16.322;2023-05-19T07:59:32;16.50;99.90
18266;DHT22;9259;48.194;16.322;2023-05-19T08:02:00;16.50;99.90
18266;DHT22;9259;48.194;16.322;2023-05-19T08:04:29;15.80;99.90
18266;DHT22;9259;48.194;16.322;2023-05-19T08:06:56;15.50;99.90
18266;DHT22;9259;48.194;16.322;2023-05-19T08:09:24;15.90;99.90
18266;DHT22;9259;48.194;16.322;2023-05-19T08:11:51;15.70;99.90
18266;DHT22;9259;48.194;16.322;2023-05-19T08:14:19;15.20;99.90
18266;DHT22;9259;48.194;16.322;2023-05-19T08:16:48;15.20;99.90
18266;DHT22;9259;48.194;16.322;2023-05-19T08:19:15;15.50;99.90
18266;DHT22;9259;48.194;16.322;2023-05-19T08:21:44;16.00;99.90
18266;DHT22;9259;48.194;16.322;2023-05-19T08:24:13;16.10;99.90
18266;DHT22;9259;48.194;16.322;2023-05-19T08:26:42;16.10;99.90
18266;DHT22;9259;48.194;16.322;2023-05-19T08:29:09;16.00;99.90
18266;DHT22;9259;48.194;16.322;2023-05-19T08:31:37;15.70;99.90
18266;DHT22;9259;48.194;16.322;2023-05-19T08:34:04;15.70;99.90
18266;DHT22;9259;48.194;16.322;2023-05-19T08:36:32;16.10;99.90
18266;DHT22;9259;48.194;16.322;2023-05-19T08:39:02;16.30;99.90
18266;DHT22;9259;48.194;16.322;2023-05-19T08:41:29;16.70;99.90
18266;DHT22;9259;48.194;16.322;2023-05-19T08:43:57;17.10;99.90
18266;DHT22;9259;48.194;16.322;2023-05-19T08:46:24;16.80;99.90
18266;DHT22;9259;48.194;16.322;2023-05-19T08:48:55;17.00;99.90
18266;DHT22;9259;48.194;16.322;2023-05-19T08:51:30;17.50;99.90
18266;DHT22;9259;48.194;16.322;2023-05-19T08:54:06;16.90;99.90
18266;DHT22;9259;48.194;16.322;2023-05-19T08:56:35;16.90;99.90
18266;DHT22;9259;48.194;16.322;2023-05-19T08:59:04;17.30;99.90
18266;DHT22;9259;48.194;16.322;2023-05-19T09:01:32;16.70;99.90
18266;DHT22;9259;48.194;16.322;2023-05-19T09:04:00;16.60;99.90
18266;DHT22;9259;48.194;16.322;2023-05-19T09:06:28;16.50;99.90
18266;DHT22;9259;48.194;16.322;2023-05-19T09:08:57;16.60;99.90
18266;DHT22;9259;48.194;16.322;2023-05-19T09:11:26;17.10;99.90
18266;DHT22;9259;48.194;16.322;2023-05-19T09:13:53;17.10;99.90
18266;DHT22;9259;48.194;16.322;2023-05-19T09:16:21;17.30;99.90
18266;DHT22;9259;48.194;16.322;2023-05-19T09:18:55;17.40;99.90
18266;DHT22;9259;48.194;16.322;2023-05-19T09:21:27;18.20;99.90
18266;DHT22;9259;48.194;16.322;2023-05-19T09:23:56;18.30;99.90
18266;DHT22;9259;48.194;16.322;2023-05-19T09:26:26;18.50;99.90
18266;DHT22;9259;48.194;16.322;2023-05-19T09:29:09;18.60;99.90
18266;DHT22;9259;48.194;16.322;2023-05-19T09:31:37;19.00;99.90
18266;DHT22;9259;48.194;16.322;2023-05-19T09:34:11;19.30;99.90
18266;DHT22;9259;48.194;16.322;2023-05-19T09:36:39;19.50;99.90
18266;DHT22;9259;48.194;16.322;2023-05-19T09:39:14;18.90;99.90
18266;DHT22;9259;48.194;16.322;2023-05-19T09:44:20;19.20;99.90
18266;DHT22;9259;48.194;16.322;2023-05-19T09:46:48;20.60;99.90
18266;DHT22;9259;48.194;16.322;2023-05-19T09:49:20;20.30;99.90
18266;DHT22;9259;48.194;16.322;2023-05-19T09:51:49;19.90;99.90
18266;DHT22;9259;48.194;16.322;2023-05-19T09:54:19;20.00;99.90
18266;DHT22;9259;48.194;16.322;2023-05-19T09:56:55;20.10;99.90
18266;DHT22;9259;48.194;16.322;2023-05-19T09:59:24;20.20;99.90
18266;DHT22;9259;48.194;16.322;2023-05-19T10:01:53;20.00;99.90
18266;DHT22;9259;48.194;16.322;2023-05-19T10:04:22;20.50;99.90
18266;DHT22;9259;48.194;16.322;2023-05-19T10:06:50;20.20;99.90
18266;DHT22;9259;48.194;16.322;2023-05-19T10:09:21;20.10;99.90
18266;DHT22;9259;48.194;16.322;2023-05-19T10:11:52;19.70;99.90
18266;DHT22;9259;48.194;16.322;2023-05-19T10:14:22;19.80;99.90
18266;DHT22;9259;48.194;16.322;2023-05-19T10:16:51;20.60;99.90
18266;DHT22;9259;48.194;16.322;2023-05-19T10:19:20;20.50;99.90
18266;DHT22;9259;48.194;16.322;2023-05-19T10:21:48;21.30;99.90
18266;DHT22;9259;48.194;16.322;2023-05-19T10:24:16;21.20;99.90
18266;DHT22;9259;48.194;16.322;2023-05-19T10:26:47;21.10;99.90
18266;DHT22;9259;48.194;16.322;2023-05-19T10:29:21;20.10;99.90
18266;DHT22;9259;48.194;16.322;2023-05-19T10:31:50;19.80;99.90
18266;DHT22;9259;48.194;16.322;2023-05-19T10:34:43;19.30;99.90
18266;DHT22;9259;48.194;16.322;2023-05-19T10:37:22;19.00;99.90
18266;DHT22;9259;48.194;16.322;2023-05-19T10:39:54;19.90;99.90
18266;DHT22;9259;48.194;16.322;2023-05-19T10:42:32;20.80;99.90
18266;DHT22;9259;48.194;16.322;2023-05-19T10:45:10;21.40;99.90
18266;DHT22;9259;48.194;16.322;2023-05-19T10:47:39;20.90;99.90
18266;DHT22;9259;48.194;16.322;2023-05-19T10:50:07;21.30;99.90
18266;DHT22;9259;48.194;16.322;2023-05-19T10:52:36;21.30;99.90
18266;DHT22;9259;48.194;16.322;2023-05-19T10:55:07;21.50;99.90
18266;DHT22;9259;48.194;16.322;2023-05-19T10:57:35;21.50;99.90
18266;DHT22;9259;48.194;16.322;2023-05-19T11:02:52;19.80;99.90
18266;DHT22;9259;48.194;16.322;2023-05-19T11:05:27;19.70;99.90
18266;DHT22;9259;48.194;16.322;2023-05-19T11:07:57;20.50;99.90
18266;DHT22;9259;48.194;16.322;2023-05-19T11:10:27;21.50;99.90
18266;DHT22;9259;48.194;16.322;2023-05-19T11:12:56;21.30;99.90
18266;DHT22;9259;48.194;16.322;2023-05-19T11:15:26;20.60;99.90
18266;DHT22;9259;48.194;16.322;2023-05-19T11:17:54;20.10;99.90
18266;DHT22;9259;48.194;16.322;2023-05-19T11:20:23;19.80;99.90
18266;DHT22;9259;48.194;16.322;2023-05-19T11:23:04;19.30;99.90
18266;DHT22;9259;48.194;16.322;2023-05-19T11:25:46;19.00;99.90
18266;DHT22;9259;48.194;16.322;2023-05-19T11:28:15;19.40;99.90
18266;DHT22;9259;48.194;16.322;2023-05-19T11:30:46;19.10;99.90
18266;DHT22;9259;48.194;16.322;2023-05-19T11:33:16;18.70;99.90
18266;DHT22;9259;48.194;16.322;2023-05-19T11:35:45;18.50;99.90
18266;DHT22;9259;48.194;16.322;2023-05-19T11:38:14;18.70;99.90
18266;DHT22;9259;48.194;16.322;2023-05-19T11:40:43;19.60;99.90
18266;DHT22;9259;48.194;16.322;2023-05-19T11:43:10;19.90;99.90
18266;DHT22;9259;48.194;16.322;2023-05-19T11:45:38;19.60;99.90
18266;DHT22;9259;48.194;16.322;2023-05-19T11:48:10;20.10;99.90
18266;DHT22;9259;48.194;16.322;2023-05-19T11:50:40;20.90;99.90
18266;DHT22;9259;48.194;16.322;2023-05-19T11:53:11;21.20;99.90
18266;DHT22;9259;48.194;16.322;2023-05-19T11:55:41;21.20;99.90
18266;DHT22;9259;48.194;16.322;2023-05-19T11:58:09;21.50;99.90
18266;DHT22;9259;48.194;16.322;2023-05-19T12:05:36;23.20;99.90
18266;DHT22;9259;48.194;16.322;2023-05-19T12:10:32;23.90;99.90
18266;DHT22;9259;48.194;16.322;2023-05-19T12:13:00;24.40;99.90
18266;DHT22;9259;48.194;16.322;2023-05-19T12:15:30;24.40;99.90
18266;DHT22;9259;48.194;16.322;2023-05-19T12:18:00;24.10;99.90
18266;DHT22;9259;48.194;16.322;2023-05-19T12:20:29;24.20;99.90
18266;DHT22;9259;48.194;16.322;2023-05-19T12:23:00;23.20;99.90
18266;DHT22;9259;48.194;16.322;2023-05-19T12:25:28;23.60;99.90
18266;DHT22;9259;48.194;16.322;2023-05-19T12:27:57;23.00;99.90
18266;DHT22;9259;48.194;16.322;2023-05-19T12:30:25;22.30;99.90
18266;DHT22;9259;48.194;16.322;2023-05-19T12:32:54;21.50;99.90
18266;DHT22;9259;48.194;16.322;2023-05-19T12:35:27;20.80;99.90
18266;DHT22;9259;48.194;16.322;2023-05-19T12:37:56;20.20;99.90
18266;DHT22;9259;48.194;16.322;2023-05-19T12:40:28;20.70;99.90
18266;DHT22;9259;48.194;16.322;2023-05-19T12:42:56;20.80;99.90
18266;DHT22;9259;48.194;16.322;2023-05-19T12:45:25;20.80;99.90
18266;DHT22;9259;48.194;16.322;2023-05-19T12:47:53;21.10;99.90
18266;DHT22;9259;48.194;16.322;2023-05-19T12:50:21;21.40;99.90
18266;DHT22;9259;48.194;16.322;2023-05-19T12:52:57;21.70;99.90
18266;DHT22;9259;48.194;16.322;2023-05-19T12:55:24;22.30;99.90
18266;DHT22;9259;48.194;16.322;2023-05-19T12:57:52;22.30;99.90
18266;DHT22;9259;48.194;16.322;2023-05-19T13:00:22;22.70;99.90
18266;DHT22;9259;48.194;16.322;2023-05-19T13:02:54;23.20;99.90
18266;DHT22;9259;48.194;16.322;2023-05-19T13:05:22;22.50;99.90
18266;DHT22;9259;48.194;16.322;2023-05-19T13:07:58;21.80;99.90
18266;DHT22;9259;48.194;16.322;2023-05-19T13:10:26;21.70;99.90
18266;DHT22;9259;48.194;16.322;2023-05-19T13:12:55;21.80;99.90
18266;DHT22;9259;48.194;16.322;2023-05-19T13:15:23;22.60;99.90
18266;DHT22;9259;48.194;16.322;2023-05-19T13:17:51;22.80;99.90
18266;DHT22;9259;48.194;16.322;2023-05-19T13:20:19;21.80;99.90
18266;DHT22;9259;48.194;16.322;2023-05-19T13:22:47;21.50;99.90
18266;DHT22;9259;48.194;16.322;2023-05-19T13:25:19;21.70;99.90
18266;DHT22;9259;48.194;16.322;2023-05-19T13:27:47;22.00;99.90
18266;DHT22;9259;48.194;16.322;2023-05-19T13:30:15;22.30;99.90
18266;DHT22;9259;48.194;16.322;2023-05-19T13:32:42;22.30;99.90
18266;DHT22;9259;48.194;16.322;2023-05-19T13:35:12;21.10;99.90
18266;DHT22;9259;48.194;16.322;2023-05-19T13:37:40;21.00;99.90
18266;DHT22;9259;48.194;16.322;2023-05-19T13:40:09;20.60;99.90
18266;DHT22;9259;48.194;16.322;2023-05-19T13:42:39;20.10;99.90
18266;DHT22;9259;48.194;16.322;2023-05-19T13:45:08;19.70;99.90
18266;DHT22;9259;48.194;16.322;2023-05-19T13:47:35;19.70;99.90
18266;DHT22;9259;48.194;16.322;2023-05-19T13:50:04;19.80;99.90
18266;DHT22;9259;48.194;16.322;2023-05-19T13:52:31;19.60;99.90
18266;DHT22;9259;48.194;16.322;2023-05-19T13:54:59;19.40;99.90
18266;DHT22;9259;48.194;16.322;2023-05-19T13:57:26;19.90;99.90
18266;DHT22;9259;48.194;16.322;2023-05-19T13:59:55;20.70;99.90
18266;DHT22;9259;48.194;16.322;2023-05-19T14:02:22;20.40;99.90
18266;DHT22;9259;48.194;16.322;2023-05-19T14:04:50;20.20;99.90
18266;DHT22;9259;48.194;16.322;2023-05-19T14:07:17;20.10;99.90
18266;DHT22;9259;48.194;16.322;2023-05-19T14:09:45;20.10;99.90
18266;DHT22;9259;48.194;16.322;2023-05-19T14:12:12;20.30;99.90
18266;DHT22;9259;48.194;16.322;2023-05-19T14:14:40;20.90;99.90
18266;DHT22;9259;48.194;16.322;2023-05-19T14:17:09;21.60;99.90
18266;DHT22;9259;48.194;16.322;2023-05-19T14:19:37;21.40;99.90
18266;DHT22;9259;48.194;16.322;2023-05-19T14:22:05;21.40;99.90
18266;DHT22;9259;48.194;16.322;2023-05-19T14:24:34;21.10;99.90
18266;DHT22;9259;48.194;16.322;2023-05-19T14:27:02;20.70;99.90
18266;DHT22;9259;48.194;16.322;2023-05-19T14:29:29;21.00;99.90
18266;DHT22;9259;48.194;16.322;2023-05-19T14:31:57;21.40;99.90
18266;DHT22;9259;48.194;16.322;2023-05-19T14:34:26;22.10;99.90
18266;DHT22;9259;48.194;16.322;2023-05-19T14:36:53;21.80;99.90
18266;DHT22;9259;48.194;16.322;2023-05-19T14:39:20;21.10;99.90
18266;DHT22;9259;48.194;16.322;2023-05-19T14:41:48;20.70;99.90
18266;DHT22;9259;48.194;16.322;2023-05-19T14:44:17;20.50;99.90
18266;DHT22;9259;48.194;16.322;2023-05-19T14:46:45;20.50;99.90
18266;DHT22;9259;48.194;16.322;2023-05-19T14:49:13;20.70;99.90
18266;DHT22;9259;48.194;16.322;2023-05-19T14:51:41;20.60;99.90
18266;DHT22;9259;48.194;16.322;2023-05-19T14:54:09;20.30;99.90
18266;DHT22;9259;48.194;16.322;2023-05-19T14:56:36;19.90;99.90
18266;DHT22;9259;48.194;16.322;2023-05-19T14:59:04;19.70;99.90
18266;DHT22;9259;48.194;16.322;2023-05-19T15:01:31;19.60;99.90
18266;DHT22;9259;48.194;16.322;2023-05-19T15:03:59;20.00;99.90
18266;DHT22;9259;48.194;16.322;2023-05-19T15:06:26;20.50;99.90
18266;DHT22;9259;48.194;16.322;2023-05-19T15:08:55;20.30;99.90
18266;DHT22;9259;48.194;16.322;2023-05-19T15:11:23;19.90;99.90
18266;DHT22;9259;48.194;16.322;2023-05-19T15:13:51;19.70;99.90
18266;DHT22;9259;48.194;16.322;2023-05-19T15:16:18;19.50;99.90
18266;DHT22;9259;48.194;16.322;2023-05-19T15:18:46;19.40;99.90
18266;DHT22;9259;48.194;16.322;2023-05-19T15:21:13;19.30;99.90
18266;DHT22;9259;48.194;16.322;2023-05-19T15:23:40;19.30;99.90
18266;DHT22;9259;48.194;16.322;2023-05-19T15:26:09;19.60;99.90
18266;DHT22;9259;48.194;16.322;2023-05-19T15:28:37;19.90;99.90
18266;DHT22;9259;48.194;16.322;2023-05-19T15:31:04;19.70;99.90
18266;DHT22;9259;48.194;16.322;2023-05-19T15:33:32;19.40;99.90
18266;DHT22;9259;48.194;16.322;2023-05-19T15:35:59;19.40;99.90
18266;DHT22;9259;48.194;16.322;2023-05-19T15:38:27;19.50;99.90
18266;DHT22;9259;48.194;16.322;2023-05-19T15:40:54;19.60;99.90
18266;DHT22;9259;48.194;16.322;2023-05-19T15:43:23;19.70;99.90
18266;DHT22;9259;48.194;16.322;2023-05-19T15:45:50;19.70;99.90
18266;DHT22;9259;48.194;16.322;2023-05-19T15:48:20;19.70;99.90
18266;DHT22;9259;48.194;16.322;2023-05-19T15:50:47;19.80;99.90
18266;DHT22;9259;48.194;16.322;2023-05-19T15:53:14;19.70;99.90
18266;DHT22;9259;48.194;16.322;2023-05-19T15:55:42;19.40;99.90
18266;DHT22;9259;48.194;16.322;2023-05-19T15:58:12;19.20;99.90
18266;DHT22;9259;48.194;16.322;2023-05-19T16:00:42;19.10;99.90
18266;DHT22;9259;48.194;16.322;2023-05-19T16:03:09;19.20;99.90
18266;DHT22;9259;48.194;16.322;2023-05-19T16:05:37;19.20;99.90